Time,TemperatureF,DewpointF,PressureIn,WindDirection,WindDirectionDegrees,WindSpeedMPH,WindSpeedGustMPH,Humidity,HourlyPrecipIn,Conditions,Clouds,dailyrainin,SoftwareType,DateUTC
2013-02-18 00:00:00,13.3,7.7,29.35,SE,135,0.0,2.0,78,0.00,,,0.00,meteohub,2013-02-18 05:00:00,
2013-02-18 00:05:00,13.6,8.1,29.35,SSE,158,0.0,2.0,78,0.00,,,0.00,meteohub,2013-02-18 05:05:00,
2013-02-18 00:10:00,13.8,8.2,29.35,SSE,158,1.0,0.0,78,0.00,,,0.00,meteohub,2013-02-18 05:10:00,
2013-02-18 00:15:00,14.0,8.4,29.35,SE,135,0.0,2.0,78,0.00,,,0.00,meteohub,2013-02-18 05:15:00,
2013-02-18 00:20:00,14.0,8.1,29.35,SSE,158,0.0,2.0,77,0.00,,,0.00,meteohub,2013-02-18 05:20:00,
2013-02-18 00:25:00,14.2,8.6,29.35,SE,135,2.0,2.0,78,0.00,,,0.00,meteohub,2013-02-18 05:25:00,
2013-02-18 00:30:00,14.5,8.6,29.34,SSE,158,4.0,4.0,77,0.00,,,0.00,meteohub,2013-02-18 05:30:00,
2013-02-18 00:35:00,14.7,8.6,29.34,SE,135,3.0,3.0,76,0.00,,,0.00,meteohub,2013-02-18 05:35:00,
2013-02-18 00:40:00,15.1,9.0,29.34,ESE,113,4.0,4.0,76,0.00,,,0.00,meteohub,2013-02-18 05:40:00,
2013-02-18 00:45:00,15.4,9.3,29.34,ESE,113,4.0,4.0,76,0.00,,,0.00,meteohub,2013-02-18 05:45:00,
2013-02-18 00:50:00,15.4,9.0,29.33,SE,135,2.0,4.0,75,0.00,,,0.00,meteohub,2013-02-18 05:50:00,
2013-02-18 00:55:00,15.4,9.0,29.33,East,90,4.0,4.0,75,0.00,,,0.00,meteohub,2013-02-18 05:55:00,
2013-02-18 01:00:00,15.8,9.0,29.33,SSE,158,2.0,4.0,74,0.00,,,0.00,meteohub,2013-02-18 06:00:00,
2013-02-18 01:05:00,15.8,9.0,29.33,ESE,113,3.0,4.0,74,0.00,,,0.00,meteohub,2013-02-18 06:05:00,
2013-02-18 01:10:00,16.0,9.1,29.32,SE,135,3.0,4.0,74,0.00,,,0.00,meteohub,2013-02-18 06:10:00,
2013-02-18 01:15:00,16.0,9.1,29.32,ESE,113,4.0,4.0,74,0.00,,,0.00,meteohub,2013-02-18 06:15:00,
2013-02-18 01:20:00,16.0,9.1,29.32,SE,135,4.0,4.0,74,0.00,,,0.00,meteohub,2013-02-18 06:20:00,
2013-02-18 01:25:00,16.2,9.3,29.32,SE,135,4.0,4.0,74,0.00,,,0.00,meteohub,2013-02-18 06:25:00,
2013-02-18 01:30:00,16.2,9.3,29.33,ESE,113,4.0,4.0,74,0.00,,,0.00,meteohub,2013-02-18 06:30:00,
2013-02-18 01:35:00,16.2,9.3,29.33,East,90,3.0,4.0,74,0.00,,,0.00,meteohub,2013-02-18 06:35:00,
2013-02-18 01:40:00,16.2,9.3,29.33,ESE,113,3.0,5.0,74,0.00,,,0.00,meteohub,2013-02-18 06:40:00,
2013-02-18 01:45:00,16.3,9.1,29.33,SE,135,3.0,5.0,73,0.00,,,0.00,meteohub,2013-02-18 06:45:00,
2013-02-18 01:51:00,16.3,9.1,29.32,ESE,113,4.0,5.0,73,0.00,,,0.00,meteohub,2013-02-18 06:51:00,
2013-02-18 01:56:00,16.3,9.1,29.32,East,90,3.0,4.0,73,0.00,,,0.00,meteohub,2013-02-18 06:56:00,
2013-02-18 02:01:00,16.5,9.3,29.32,ESE,113,3.0,4.0,73,0.00,,,0.00,meteohub,2013-02-18 07:01:00,
2013-02-18 02:06:00,16.5,9.3,29.32,ESE,113,4.0,5.0,73,0.00,,,0.00,meteohub,2013-02-18 07:06:00,
2013-02-18 02:11:00,16.7,9.5,29.32,East,90,3.0,5.0,73,0.00,,,0.00,meteohub,2013-02-18 07:11:00,
2013-02-18 02:16:00,16.9,9.7,29.32,ESE,113,3.0,5.0,73,0.00,,,0.00,meteohub,2013-02-18 07:16:00,
2013-02-18 02:21:00,16.9,9.7,29.32,ESE,113,4.0,4.0,73,0.00,,,0.00,meteohub,2013-02-18 07:21:00,
2013-02-18 02:26:00,17.1,9.9,29.32,ESE,113,3.0,5.0,73,0.00,,,0.00,meteohub,2013-02-18 07:26:00,
2013-02-18 02:31:00,17.1,9.9,29.32,North,0,3.0,5.0,73,0.00,,,0.00,meteohub,2013-02-18 07:31:00,
2013-02-18 02:36:00,17.2,10.0,29.32,SE,135,3.0,5.0,73,0.00,,,0.00,meteohub,2013-02-18 07:36:00,
2013-02-18 02:41:00,17.2,10.0,29.32,SSE,158,3.0,3.0,73,0.00,,,0.00,meteohub,2013-02-18 07:41:00,
2013-02-18 02:46:00,17.4,10.2,29.32,SE,135,2.0,4.0,73,0.00,,,0.00,meteohub,2013-02-18 07:46:00,
2013-02-18 02:51:00,17.6,10.4,29.33,SE,135,4.0,4.0,73,0.00,,,0.00,meteohub,2013-02-18 07:51:00,
2013-02-18 02:56:00,17.8,10.6,29.33,ESE,113,4.0,7.0,73,0.00,,,0.00,meteohub,2013-02-18 07:56:00,
2013-02-18 03:01:00,17.8,10.6,29.33,SSE,158,4.0,7.0,73,0.00,,,0.00,meteohub,2013-02-18 08:01:00,
2013-02-18 03:06:00,18.0,10.8,29.33,ESE,113,2.0,7.0,73,0.00,,,0.00,meteohub,2013-02-18 08:06:00,
2013-02-18 03:11:00,18.0,10.8,29.32,ESE,113,5.0,5.0,73,0.00,,,0.00,meteohub,2013-02-18 08:11:00,
2013-02-18 03:16:00,18.0,10.4,29.32,ESE,113,3.0,5.0,72,0.00,,,0.00,meteohub,2013-02-18 08:16:00,
2013-02-18 03:21:00,18.0,10.8,29.32,SSE,158,2.0,5.0,73,0.00,,,0.00,meteohub,2013-02-18 08:21:00,
2013-02-18 03:26:00,18.0,10.4,29.32,WNW,293,3.0,5.0,72,0.00,,,0.00,meteohub,2013-02-18 08:26:00,
2013-02-18 03:31:00,18.1,10.6,29.31,South,180,6.0,6.0,72,0.00,,,0.00,meteohub,2013-02-18 08:31:00,
2013-02-18 03:36:00,18.1,10.6,29.31,SE,135,2.0,6.0,72,0.00,,,0.00,meteohub,2013-02-18 08:36:00,
2013-02-18 03:41:00,18.1,10.6,29.31,SSE,158,4.0,6.0,72,0.00,,,0.00,meteohub,2013-02-18 08:41:00,
2013-02-18 03:46:00,18.3,10.8,29.31,ESE,113,4.0,5.0,72,0.00,,,0.00,meteohub,2013-02-18 08:46:00,
2013-02-18 03:51:00,18.3,10.8,29.29,ESE,113,3.0,5.0,72,0.00,,,0.00,meteohub,2013-02-18 08:51:00,
2013-02-18 03:56:00,18.3,10.8,29.29,SSE,158,3.0,6.0,72,0.00,,,0.00,meteohub,2013-02-18 08:56:00,
2013-02-18 04:01:00,18.5,10.9,29.29,ESE,113,3.0,6.0,72,0.00,,,0.00,meteohub,2013-02-18 09:01:00,
2013-02-18 04:06:00,18.5,10.9,29.29,ESE,113,3.0,6.0,72,0.00,,,0.00,meteohub,2013-02-18 09:06:00,
2013-02-18 04:11:00,18.7,11.1,29.29,SE,135,3.0,5.0,72,0.00,,,0.00,meteohub,2013-02-18 09:11:00,
2013-02-18 04:16:00,18.9,11.3,29.29,ESE,113,5.0,6.0,72,0.00,,,0.00,meteohub,2013-02-18 09:16:00,
2013-02-18 04:21:00,18.9,11.3,29.29,ENE,68,4.0,6.0,72,0.00,,,0.00,meteohub,2013-02-18 09:21:00,
2013-02-18 04:26:00,19.0,11.1,29.29,ESE,113,5.0,6.0,71,0.00,,,0.00,meteohub,2013-02-18 09:26:00,
2013-02-18 04:31:00,19.0,11.1,29.28,ESE,113,5.0,6.0,71,0.00,,,0.00,meteohub,2013-02-18 09:31:00,
2013-02-18 04:36:00,19.2,11.3,29.28,SSE,158,3.0,6.0,71,0.00,,,0.00,meteohub,2013-02-18 09:36:00,
2013-02-18 04:41:00,19.2,11.3,29.28,SE,135,3.0,5.0,71,0.00,,,0.00,meteohub,2013-02-18 09:41:00,
2013-02-18 04:46:00,19.2,11.3,29.28,SE,135,4.0,5.0,71,0.00,,,0.00,meteohub,2013-02-18 09:46:00,
2013-02-18 04:51:00,19.2,11.3,29.26,ESE,113,5.0,5.0,71,0.00,,,0.00,meteohub,2013-02-18 09:51:00,
2013-02-18 04:56:00,19.2,11.3,29.26,ESE,113,4.0,6.0,71,0.00,,,0.00,meteohub,2013-02-18 09:56:00,
2013-02-18 05:01:00,19.2,11.3,29.26,East,90,4.0,6.0,71,0.00,,,0.00,meteohub,2013-02-18 10:01:00,
2013-02-18 05:06:00,19.2,11.3,29.26,ESE,113,5.0,7.0,71,0.00,,,0.00,meteohub,2013-02-18 10:06:00,
2013-02-18 05:11:00,19.2,11.3,29.25,NE,45,2.0,7.0,71,0.00,,,0.00,meteohub,2013-02-18 10:11:00,
2013-02-18 05:16:00,19.2,11.3,29.25,SE,135,5.0,5.0,71,0.00,,,0.00,meteohub,2013-02-18 10:16:00,
2013-02-18 05:21:00,19.2,11.1,29.25,ESE,113,5.0,5.0,70,0.00,,,0.00,meteohub,2013-02-18 10:21:00,
2013-02-18 05:26:00,19.2,11.1,29.25,SE,135,6.0,6.0,70,0.00,,,0.00,meteohub,2013-02-18 10:26:00,
2013-02-18 05:31:00,19.2,11.1,29.24,SE,135,5.0,6.0,70,0.00,,,0.00,meteohub,2013-02-18 10:31:00,
2013-02-18 05:36:00,19.4,11.3,29.24,ESE,113,2.0,6.0,70,0.00,,,0.00,meteohub,2013-02-18 10:36:00,
2013-02-18 05:37:00,19.4,11.3,29.24,ESE,113,2.0,6.0,70,0.00,,,0.00,meteohub,2013-02-18 10:37:00,
2013-02-18 05:41:00,19.6,11.5,29.24,ESE,113,4.0,6.0,70,0.00,,,0.00,meteohub,2013-02-18 10:41:00,
2013-02-18 05:46:00,19.6,11.5,29.24,ESE,113,6.0,6.0,70,0.00,,,0.00,meteohub,2013-02-18 10:46:00,
2013-02-18 05:52:00,19.8,11.3,29.24,South,180,6.0,6.0,69,0.00,,,0.00,meteohub,2013-02-18 10:52:00,
2013-02-18 05:57:00,19.8,11.3,29.24,ESE,113,5.0,6.0,69,0.00,,,0.00,meteohub,2013-02-18 10:57:00,
2013-02-18 06:02:00,19.9,11.5,29.24,South,180,4.0,6.0,69,0.00,,,0.00,meteohub,2013-02-18 11:02:00,
2013-02-18 06:08:00,19.9,11.5,29.24,ESE,113,6.0,6.0,69,0.00,,,0.00,meteohub,2013-02-18 11:08:00,
2013-02-18 06:13:00,20.1,11.7,29.23,SE,135,3.0,6.0,69,0.00,,,0.00,meteohub,2013-02-18 11:13:00,
2013-02-18 06:18:00,20.3,11.8,29.23,SE,135,4.0,6.0,69,0.00,,,0.00,meteohub,2013-02-18 11:18:00,
2013-02-18 06:23:00,20.5,11.7,29.23,ESE,113,4.0,6.0,68,0.00,,,0.00,meteohub,2013-02-18 11:23:00,
2013-02-18 06:29:00,20.5,11.7,29.23,ESE,113,4.0,6.0,68,0.00,,,0.00,meteohub,2013-02-18 11:29:00,
2013-02-18 06:34:00,20.5,11.7,29.21,SE,135,4.0,6.0,68,0.00,,,0.00,meteohub,2013-02-18 11:34:00,
2013-02-18 06:39:00,20.7,11.8,29.21,SE,135,5.0,6.0,68,0.00,,,0.00,meteohub,2013-02-18 11:39:00,
2013-02-18 06:44:00,20.7,11.5,29.21,ESE,113,6.0,9.0,67,0.00,,,0.00,meteohub,2013-02-18 11:44:00,
2013-02-18 06:49:00,20.8,11.7,29.20,ESE,113,5.0,9.0,67,0.00,,,0.00,meteohub,2013-02-18 11:49:00,
2013-02-18 06:55:00,21.0,11.5,29.20,NE,45,7.0,7.0,66,0.00,,,0.00,meteohub,2013-02-18 11:55:00,
2013-02-18 07:00:00,21.2,11.7,29.20,SE,135,6.0,8.0,66,0.00,,,0.00,meteohub,2013-02-18 12:00:00,
2013-02-18 07:05:00,21.2,11.7,29.20,East,90,4.0,8.0,66,0.00,,,0.00,meteohub,2013-02-18 12:05:00,
2013-02-18 07:11:00,21.4,11.5,29.17,ESE,113,8.0,8.0,65,0.00,,,0.00,meteohub,2013-02-18 12:11:00,
2013-02-18 07:16:00,21.6,11.7,29.17,SW,225,3.0,8.0,65,0.00,,,0.00,meteohub,2013-02-18 12:16:00,
2013-02-18 07:21:00,21.7,11.5,29.17,NE,45,4.0,8.0,64,0.00,,,0.00,meteohub,2013-02-18 12:21:00,
2013-02-18 07:26:00,21.9,11.7,29.17,ESE,113,8.0,8.0,64,0.00,,,0.00,meteohub,2013-02-18 12:26:00,
2013-02-18 07:31:00,21.9,11.7,29.16,SE,135,7.0,7.0,64,0.00,,,0.00,meteohub,2013-02-18 12:31:00,
2013-02-18 07:37:00,21.9,11.7,29.16,ESE,113,5.0,9.0,64,0.00,,,0.00,meteohub,2013-02-18 12:37:00,
2013-02-18 07:42:00,22.1,12.2,29.16,ESE,113,6.0,9.0,65,0.00,,,0.00,meteohub,2013-02-18 12:42:00,
2013-02-18 07:47:00,22.1,12.2,29.16,ESE,113,6.0,9.0,65,0.00,,,0.00,meteohub,2013-02-18 12:47:00,
2013-02-18 07:52:00,22.1,12.7,29.16,SE,135,3.0,8.0,67,0.00,,,0.00,meteohub,2013-02-18 12:52:00,
2013-02-18 07:57:00,21.9,12.9,29.16,East,90,7.0,7.0,68,0.00,,,0.00,meteohub,2013-02-18 12:57:00,
2013-02-18 08:02:00,21.9,13.6,29.16,East,90,7.0,8.0,70,0.00,,,0.00,meteohub,2013-02-18 13:02:00,
2013-02-18 08:07:00,21.9,14.4,29.16,South,180,4.0,9.0,72,0.00,,,0.00,meteohub,2013-02-18 13:07:00,
2013-02-18 08:12:00,21.9,14.4,29.15,South,180,4.0,9.0,72,0.00,,,0.00,meteohub,2013-02-18 13:12:00,
2013-02-18 08:17:00,21.9,14.4,29.15,East,90,5.0,7.0,72,0.00,,,0.00,meteohub,2013-02-18 13:17:00,
2013-02-18 08:22:00,21.9,14.4,29.15,WSW,248,6.0,7.0,72,0.00,,,0.00,meteohub,2013-02-18 13:22:00,
2013-02-18 08:27:00,22.1,14.2,29.15,SE,135,6.0,7.0,71,0.00,,,0.00,meteohub,2013-02-18 13:27:00,
2013-02-18 08:32:00,22.3,14.4,29.13,SE,135,5.0,7.0,71,0.00,,,0.00,meteohub,2013-02-18 13:32:00,
2013-02-18 08:37:00,22.3,14.4,29.13,SE,135,4.0,7.0,71,0.00,,,0.00,meteohub,2013-02-18 13:37:00,
2013-02-18 08:42:00,22.5,14.5,29.13,ESE,113,4.0,7.0,71,0.00,,,0.00,meteohub,2013-02-18 13:42:00,
2013-02-18 08:47:00,22.6,14.7,29.13,East,90,4.0,7.0,71,0.00,,,0.00,meteohub,2013-02-18 13:47:00,
2013-02-18 08:52:00,22.6,14.7,29.13,ESE,113,5.0,5.0,71,0.00,,,0.00,meteohub,2013-02-18 13:52:00,
2013-02-18 08:57:00,22.6,14.7,29.13,ESE,113,4.0,5.0,71,0.00,,,0.00,meteohub,2013-02-18 13:57:00,
2013-02-18 09:02:00,22.8,14.5,29.13,ESE,113,2.0,5.0,70,0.00,,,0.00,meteohub,2013-02-18 14:02:00,
2013-02-18 09:07:00,23.0,14.7,29.13,SSE,158,4.0,5.0,70,0.00,,,0.00,meteohub,2013-02-18 14:07:00,
2013-02-18 09:12:00,23.4,14.7,29.13,ESE,113,7.0,7.0,69,0.00,,,0.00,meteohub,2013-02-18 14:12:00,
2013-02-18 09:17:00,23.7,14.7,29.13,SE,135,4.0,7.0,68,0.00,,,0.00,meteohub,2013-02-18 14:17:00,
2013-02-18 09:22:00,24.1,15.1,29.13,East,90,9.0,9.0,68,0.00,,,0.00,meteohub,2013-02-18 14:22:00,
2013-02-18 09:27:00,24.3,14.9,29.13,ESE,113,5.0,9.0,67,0.00,,,0.00,meteohub,2013-02-18 14:27:00,
2013-02-18 09:32:00,24.4,15.1,29.11,SE,135,4.0,9.0,67,0.00,,,0.00,meteohub,2013-02-18 14:32:00,
2013-02-18 09:37:00,24.6,14.9,29.11,ESE,113,8.0,10.0,66,0.00,,,0.00,meteohub,2013-02-18 14:37:00,
2013-02-18 09:42:00,25.0,15.3,29.11,SSE,158,8.0,10.0,66,0.00,,,0.00,meteohub,2013-02-18 14:42:00,
2013-02-18 09:47:00,25.2,15.1,29.11,ESE,113,7.0,12.0,65,0.00,,,0.00,meteohub,2013-02-18 14:47:00,
2013-02-18 09:52:00,25.5,15.1,29.09,SSE,158,6.0,12.0,64,0.00,,,0.00,meteohub,2013-02-18 14:52:00,
2013-02-18 09:57:00,25.5,15.1,29.09,SSE,158,5.0,13.0,64,0.00,,,0.00,meteohub,2013-02-18 14:57:00,
2013-02-18 10:02:00,25.9,15.4,29.09,East,90,8.0,13.0,64,0.00,,,0.00,meteohub,2013-02-18 15:02:00,
2013-02-18 10:07:00,26.2,15.8,29.09,ESE,113,8.0,11.0,64,0.00,,,0.00,meteohub,2013-02-18 15:07:00,
2013-02-18 10:12:00,26.2,15.4,29.07,SSE,158,6.0,11.0,63,0.00,,,0.00,meteohub,2013-02-18 15:12:00,
2013-02-18 10:17:00,26.4,15.6,29.07,East,90,10.0,11.0,63,0.00,,,0.00,meteohub,2013-02-18 15:17:00,
2013-02-18 10:22:00,26.6,15.6,29.07,SE,135,6.0,10.0,63,0.00,,,0.00,meteohub,2013-02-18 15:22:00,
2013-02-18 10:27:00,27.0,16.0,29.07,SE,135,9.0,10.0,63,0.00,,,0.00,meteohub,2013-02-18 15:27:00,
2013-02-18 10:32:00,27.5,16.5,29.07,SE,135,7.0,10.0,63,0.00,,,0.00,meteohub,2013-02-18 15:32:00,
2013-02-18 10:37:00,27.7,16.3,29.07,SE,135,6.0,9.0,62,0.00,,,0.00,meteohub,2013-02-18 15:37:00,
2013-02-18 10:42:00,27.9,16.5,29.07,SE,135,9.0,13.0,62,0.00,,,0.00,meteohub,2013-02-18 15:42:00,
2013-02-18 10:47:00,28.0,16.7,29.07,SE,135,10.0,13.0,62,0.00,,,0.00,meteohub,2013-02-18 15:47:00,
2013-02-18 10:52:00,28.2,16.9,29.06,ESE,113,7.0,13.0,62,0.00,,,0.00,meteohub,2013-02-18 15:52:00,
2013-02-18 10:57:00,28.4,16.7,29.06,East,90,9.0,10.0,61,0.00,,,0.00,meteohub,2013-02-18 15:57:00,
2013-02-18 11:02:00,28.6,17.2,29.06,SE,135,6.0,11.0,62,0.00,,,0.00,meteohub,2013-02-18 16:02:00,
2013-02-18 11:07:00,28.4,17.1,29.06,ESE,113,7.0,11.0,62,0.00,,,0.00,meteohub,2013-02-18 16:07:00,
2013-02-18 11:12:00,28.8,17.4,29.06,SE,135,11.0,11.0,62,0.00,,,0.00,meteohub,2013-02-18 16:12:00,
2013-02-18 11:17:00,28.8,17.1,29.06,East,90,5.0,11.0,61,0.00,,,0.00,meteohub,2013-02-18 16:17:00,
2013-02-18 11:22:00,28.9,17.2,29.06,SE,135,7.0,11.0,61,0.00,,,0.00,meteohub,2013-02-18 16:22:00,
2013-02-18 11:27:00,29.3,17.6,29.06,ESE,113,7.0,11.0,61,0.00,,,0.00,meteohub,2013-02-18 16:27:00,
2013-02-18 11:32:00,29.7,18.3,29.05,East,90,4.0,10.0,62,0.00,,,0.00,meteohub,2013-02-18 16:32:00,
2013-02-18 11:37:00,29.8,18.0,29.05,East,90,6.0,10.0,61,0.00,,,0.00,meteohub,2013-02-18 16:37:00,
2013-02-18 11:42:00,29.8,17.6,29.05,SW,225,3.0,10.0,60,0.00,,,0.00,meteohub,2013-02-18 16:42:00,
2013-02-18 11:47:00,30.2,18.3,29.05,ESE,113,6.0,10.0,61,0.00,,,0.00,meteohub,2013-02-18 16:47:00,
2013-02-18 11:52:00,30.6,18.7,29.05,SE,135,4.0,9.0,61,0.00,,,0.00,meteohub,2013-02-18 16:52:00,
2013-02-18 11:57:00,30.9,18.7,29.05,ESE,113,6.0,9.0,60,0.00,,,0.00,meteohub,2013-02-18 16:57:00,
2013-02-18 12:02:00,31.1,18.9,29.05,East,90,3.0,8.0,60,0.00,,,0.00,meteohub,2013-02-18 17:02:00,
2013-02-18 12:07:00,30.9,18.3,29.05,East,90,9.0,9.0,59,0.00,,,0.00,meteohub,2013-02-18 17:07:00,
2013-02-18 12:12:00,30.9,18.7,29.03,East,90,6.0,14.0,60,0.00,,,0.00,meteohub,2013-02-18 17:12:00,
2013-02-18 12:17:00,31.5,19.2,29.03,ESE,113,5.0,14.0,60,0.00,,,0.00,meteohub,2013-02-18 17:17:00,
2013-02-18 12:22:00,32.0,19.8,29.03,WSW,248,6.0,14.0,60,0.00,,,0.00,meteohub,2013-02-18 17:22:00,
2013-02-18 12:27:00,32.0,19.2,29.03,SE,135,9.0,10.0,59,0.00,,,0.00,meteohub,2013-02-18 17:27:00,
2013-02-18 12:32:00,32.0,19.2,29.02,South,180,9.0,9.0,59,0.00,,,0.00,meteohub,2013-02-18 17:32:00,
2013-02-18 12:37:00,32.2,19.4,29.02,SSE,158,5.0,9.0,59,0.00,,,0.00,meteohub,2013-02-18 17:37:00,
2013-02-18 12:42:00,32.4,19.9,29.02,SE,135,5.0,9.0,60,0.00,,,0.00,meteohub,2013-02-18 17:42:00,
2013-02-18 12:47:00,32.5,19.8,29.02,SE,135,3.0,9.0,59,0.00,,,0.00,meteohub,2013-02-18 17:47:00,
2013-02-18 12:52:00,33.4,20.7,29.01,SE,135,8.0,12.0,59,0.00,,,0.00,meteohub,2013-02-18 17:52:00,
2013-02-18 12:57:00,33.8,21.0,29.01,SSE,158,7.0,13.0,59,0.00,,,0.00,meteohub,2013-02-18 17:57:00,
2013-02-18 13:02:00,33.8,20.7,29.01,ESE,113,10.0,13.0,58,0.00,,,0.00,meteohub,2013-02-18 18:02:00,
2013-02-18 13:07:00,33.6,20.8,29.01,East,90,6.0,10.0,59,0.00,,,0.00,meteohub,2013-02-18 18:07:00,
2013-02-18 13:12:00,34.0,21.2,28.99,SE,135,9.0,10.0,59,0.00,,,0.00,meteohub,2013-02-18 18:12:00,
2013-02-18 13:17:00,34.3,21.6,28.99,SE,135,7.0,10.0,59,0.00,,,0.00,meteohub,2013-02-18 18:17:00,
2013-02-18 13:23:00,34.3,21.0,28.99,South,180,8.0,9.0,58,0.00,,,0.00,meteohub,2013-02-18 18:23:00,
2013-02-18 13:28:00,34.5,21.2,28.99,South,180,7.0,13.0,58,0.00,,,0.00,meteohub,2013-02-18 18:28:00,
2013-02-18 13:33:00,35.1,22.1,28.97,ESE,113,7.0,13.0,59,0.00,,,0.00,meteohub,2013-02-18 18:33:00,
2013-02-18 13:38:00,35.2,21.9,28.97,SSW,203,4.0,13.0,58,0.00,,,0.00,meteohub,2013-02-18 18:38:00,
2013-02-18 13:43:00,35.6,22.3,28.97,South,180,9.0,9.0,58,0.00,,,0.00,meteohub,2013-02-18 18:43:00,
2013-02-18 13:48:00,35.8,22.5,28.97,SSE,158,5.0,9.0,58,0.00,,,0.00,meteohub,2013-02-18 18:48:00,
2013-02-18 13:53:00,35.8,22.1,28.97,SSE,158,10.0,10.0,57,0.00,,,0.00,meteohub,2013-02-18 18:53:00,
2013-02-18 13:58:00,36.0,22.3,28.97,NNE,23,10.0,10.0,57,0.00,,,0.00,meteohub,2013-02-18 18:58:00,
2013-02-18 14:04:00,36.0,22.3,28.97,SE,135,6.0,13.0,57,0.00,,,0.00,meteohub,2013-02-18 19:04:00,
2013-02-18 14:09:00,36.1,22.8,28.97,NE,45,6.0,13.0,58,0.00,,,0.00,meteohub,2013-02-18 19:09:00,
2013-02-18 14:14:00,36.5,23.2,28.95,East,90,6.0,13.0,58,0.00,,,0.00,meteohub,2013-02-18 19:14:00,
2013-02-18 14:21:00,36.9,23.5,28.95,East,90,7.0,11.0,58,0.03,,,0.03,meteohub,2013-02-18 19:21:00,
2013-02-18 14:26:00,37.0,23.2,28.95,South,180,6.0,15.0,57,0.03,,,0.03,meteohub,2013-02-18 19:26:00,
2013-02-18 14:31:00,37.6,24.1,28.94,ESE,113,3.0,15.0,58,0.03,,,0.03,meteohub,2013-02-18 19:31:00,
2013-02-18 14:36:00,37.9,24.1,28.94,SE,135,8.0,10.0,57,0.03,,,0.03,meteohub,2013-02-18 19:36:00,
2013-02-18 14:41:00,37.9,23.7,28.94,East,90,5.0,9.0,56,0.03,,,0.03,meteohub,2013-02-18 19:41:00,
2013-02-18 14:46:00,37.9,24.1,28.94,East,90,7.0,9.0,57,0.03,,,0.03,meteohub,2013-02-18 19:46:00,
2013-02-18 14:51:00,37.9,23.7,28.92,SE,135,8.0,9.0,56,0.03,,,0.03,meteohub,2013-02-18 19:51:00,
2013-02-18 14:57:00,37.9,23.7,28.92,SSW,203,9.0,9.0,56,0.03,,,0.03,meteohub,2013-02-18 19:57:00,
2013-02-18 15:02:00,37.9,23.7,28.92,ESE,113,7.0,11.0,56,0.03,,,0.03,meteohub,2013-02-18 20:02:00,
2013-02-18 15:07:00,38.1,24.3,28.92,SW,225,8.0,11.0,57,0.03,,,0.03,meteohub,2013-02-18 20:07:00,
2013-02-18 15:12:00,38.5,24.6,28.92,SSE,158,4.0,11.0,57,0.00,,,0.03,meteohub,2013-02-18 20:12:00,
2013-02-18 15:17:00,38.5,24.6,28.92,ESE,113,6.0,8.0,57,0.00,,,0.03,meteohub,2013-02-18 20:17:00,
2013-02-18 15:22:00,38.3,24.4,28.92,ESE,113,2.0,8.0,57,0.00,,,0.03,meteohub,2013-02-18 20:22:00,
2013-02-18 15:27:00,38.7,24.8,28.92,East,90,2.0,7.0,57,0.00,,,0.03,meteohub,2013-02-18 20:27:00,
2013-02-18 15:33:00,39.0,24.6,28.92,South,180,11.0,11.0,56,0.00,,,0.03,meteohub,2013-02-18 20:33:00,
2013-02-18 15:38:00,39.0,24.6,28.92,SSE,158,4.0,11.0,56,0.00,,,0.03,meteohub,2013-02-18 20:38:00,
2013-02-18 15:43:00,39.0,25.2,28.92,SSE,158,3.0,11.0,57,0.00,,,0.03,meteohub,2013-02-18 20:43:00,
2013-02-18 15:48:00,39.0,24.6,28.91,ESE,113,6.0,11.0,56,0.00,,,0.03,meteohub,2013-02-18 20:48:00,
2013-02-18 15:53:00,39.0,25.2,28.91,SSW,203,2.0,10.0,57,0.00,,,0.03,meteohub,2013-02-18 20:53:00,
2013-02-18 15:59:00,39.2,25.2,28.91,SE,135,7.0,10.0,57,0.00,,,0.03,meteohub,2013-02-18 20:59:00,
2013-02-18 16:04:00,39.4,25.3,28.91,SE,135,4.0,8.0,57,0.00,,,0.03,meteohub,2013-02-18 21:04:00,
2013-02-18 16:09:00,39.2,24.8,28.90,SW,225,12.0,12.0,56,0.00,,,0.03,meteohub,2013-02-18 21:09:00,
2013-02-18 16:14:00,39.0,24.6,28.90,SSE,158,6.0,12.0,56,0.00,,,0.03,meteohub,2013-02-18 21:14:00,
2013-02-18 16:19:00,39.0,25.2,28.90,SE,135,4.0,12.0,57,0.03,,,0.06,meteohub,2013-02-18 21:19:00,
2013-02-18 16:24:00,38.7,24.8,28.90,SSE,158,6.0,12.0,57,0.03,,,0.06,meteohub,2013-02-18 21:24:00,
2013-02-18 16:29:00,38.7,25.2,28.91,SE,135,7.0,9.0,58,0.03,,,0.06,meteohub,2013-02-18 21:29:00,
2013-02-18 16:34:00,38.7,25.2,28.91,SSE,158,6.0,8.0,58,0.03,,,0.06,meteohub,2013-02-18 21:34:00,
2013-02-18 16:39:00,38.7,25.2,28.91,ESE,113,3.0,7.0,58,0.03,,,0.06,meteohub,2013-02-18 21:39:00,
2013-02-18 16:45:00,38.7,25.2,28.91,ESE,113,6.0,7.0,58,0.03,,,0.06,meteohub,2013-02-18 21:45:00,
2013-02-18 16:50:00,38.5,25.3,28.90,ENE,68,4.0,9.0,59,0.03,,,0.06,meteohub,2013-02-18 21:50:00,
2013-02-18 16:56:00,38.3,25.2,28.90,ESE,113,4.0,9.0,59,0.03,,,0.06,meteohub,2013-02-18 21:56:00,
2013-02-18 17:01:00,38.1,25.0,28.90,SE,135,6.0,9.0,59,0.03,,,0.06,meteohub,2013-02-18 22:01:00,
2013-02-18 17:06:00,38.1,25.0,28.90,NE,45,4.0,7.0,59,0.03,,,0.06,meteohub,2013-02-18 22:06:00,
2013-02-18 17:11:00,38.1,25.0,28.90,ESE,113,2.0,6.0,59,0.03,,,0.06,meteohub,2013-02-18 22:11:00,
2013-02-18 17:16:00,37.9,25.0,28.90,SSE,158,5.0,6.0,59,0.00,,,0.06,meteohub,2013-02-18 22:16:00,
2013-02-18 17:21:00,37.9,25.0,28.90,SE,135,3.0,6.0,59,0.00,,,0.06,meteohub,2013-02-18 22:21:00,
2013-02-18 17:26:00,37.9,25.3,28.90,East,90,3.0,5.0,60,0.00,,,0.06,meteohub,2013-02-18 22:26:00,
2013-02-18 17:31:00,37.8,25.2,28.89,SE,135,4.0,6.0,60,0.00,,,0.06,meteohub,2013-02-18 22:31:00,
2013-02-18 17:36:00,37.8,25.2,28.89,SE,135,3.0,6.0,60,0.00,,,0.06,meteohub,2013-02-18 22:36:00,
2013-02-18 17:41:00,37.8,25.5,28.89,SE,135,5.0,6.0,61,0.00,,,0.06,meteohub,2013-02-18 22:41:00,
2013-02-18 17:46:00,37.8,25.5,28.89,East,90,4.0,9.0,61,0.00,,,0.06,meteohub,2013-02-18 22:46:00,
2013-02-18 17:51:00,37.4,25.2,28.88,ENE,68,3.0,9.0,61,0.00,,,0.06,meteohub,2013-02-18 22:51:00,
2013-02-18 17:56:00,37.6,25.7,28.88,ESE,113,2.0,9.0,62,0.00,,,0.06,meteohub,2013-02-18 22:56:00,
2013-02-18 18:02:00,37.6,25.3,28.88,SSE,158,4.0,9.0,61,0.00,,,0.06,meteohub,2013-02-18 23:02:00,
2013-02-18 18:07:00,37.6,25.7,28.88,SE,135,3.0,6.0,62,0.00,,,0.06,meteohub,2013-02-18 23:07:00,
2013-02-18 18:12:00,37.6,25.7,28.87,East,90,4.0,4.0,62,0.00,,,0.06,meteohub,2013-02-18 23:12:00,
2013-02-18 18:17:00,37.6,25.7,28.87,ESE,113,4.0,4.0,62,0.00,,,0.06,meteohub,2013-02-18 23:17:00,
2013-02-18 18:22:00,37.6,26.1,28.87,ESE,113,3.0,5.0,63,0.00,,,0.06,meteohub,2013-02-18 23:22:00,
2013-02-18 18:27:00,37.6,26.1,28.87,East,90,6.0,6.0,63,0.00,,,0.06,meteohub,2013-02-18 23:27:00,
2013-02-18 18:32:00,37.6,26.1,28.87,East,90,6.0,6.0,63,0.00,,,0.06,meteohub,2013-02-18 23:32:00,
2013-02-18 18:37:00,37.6,26.1,28.87,SE,135,4.0,6.0,63,0.00,,,0.06,meteohub,2013-02-18 23:37:00,
2013-02-18 18:42:00,37.6,26.1,28.87,SE,135,3.0,6.0,63,0.00,,,0.06,meteohub,2013-02-18 23:42:00,
2013-02-18 18:47:00,37.8,26.6,28.87,ESE,113,4.0,6.0,64,0.00,,,0.06,meteohub,2013-02-18 23:47:00,
2013-02-18 18:53:00,37.8,26.6,28.85,SE,135,3.0,6.0,64,0.00,,,0.06,meteohub,2013-02-18 23:53:00,
2013-02-18 18:58:00,37.9,26.8,28.85,ESE,113,3.0,7.0,64,0.00,,,0.06,meteohub,2013-02-18 23:58:00,
2013-02-18 19:03:00,37.9,27.1,28.85,SE,135,5.0,7.0,65,0.00,,,0.06,meteohub,2013-02-19 00:03:00,
2013-02-18 19:08:00,37.9,27.1,28.85,East,90,2.0,6.0,65,0.00,,,0.06,meteohub,2013-02-19 00:08:00,
2013-02-18 19:13:00,37.9,27.1,28.85,ESE,113,5.0,6.0,65,0.00,,,0.06,meteohub,2013-02-19 00:13:00,
2013-02-18 19:18:00,38.1,27.3,28.85,ESE,113,5.0,7.0,65,0.00,,,0.06,meteohub,2013-02-19 00:18:00,
2013-02-18 19:23:00,38.1,27.3,28.85,ESE,113,4.0,7.0,65,0.00,,,0.06,meteohub,2013-02-19 00:23:00,
2013-02-18 19:28:00,38.1,27.3,28.85,ESE,113,4.0,6.0,65,0.00,,,0.06,meteohub,2013-02-19 00:28:00,
2013-02-18 19:33:00,38.1,27.3,28.84,ESE,113,5.0,6.0,65,0.00,,,0.06,meteohub,2013-02-19 00:33:00,
2013-02-18 19:38:00,38.3,27.9,28.84,ESE,113,4.0,6.0,66,0.00,,,0.06,meteohub,2013-02-19 00:38:00,
2013-02-18 19:43:00,38.3,27.9,28.84,SW,225,7.0,8.0,66,0.00,,,0.06,meteohub,2013-02-19 00:43:00,
2013-02-18 19:48:00,38.3,27.9,28.84,SSE,158,9.0,9.0,66,0.00,,,0.06,meteohub,2013-02-19 00:48:00,
2013-02-18 19:53:00,38.5,28.0,28.83,ESE,113,5.0,9.0,66,0.00,,,0.06,meteohub,2013-02-19 00:53:00,
2013-02-18 19:58:00,38.5,28.0,28.83,ESE,113,4.0,9.0,66,0.00,,,0.06,meteohub,2013-02-19 00:58:00,
2013-02-18 20:04:00,38.5,28.0,28.83,ESE,113,6.0,9.0,66,0.00,,,0.06,meteohub,2013-02-19 01:04:00,
2013-02-18 20:09:00,38.7,28.2,28.82,SE,135,5.0,9.0,66,0.00,,,0.06,meteohub,2013-02-19 01:09:00,
2013-02-18 20:15:00,38.7,28.2,28.82,SE,135,4.0,9.0,66,0.00,,,0.06,meteohub,2013-02-19 01:15:00,
2013-02-18 20:21:00,38.7,28.6,28.82,ESE,113,9.0,9.0,67,0.00,,,0.06,meteohub,2013-02-19 01:21:00,
2013-02-18 20:26:00,38.8,28.8,28.82,SSE,158,7.0,11.0,67,0.00,,,0.06,meteohub,2013-02-19 01:26:00,
2013-02-18 20:32:00,38.8,29.1,28.82,ESE,113,10.0,11.0,68,0.00,,,0.06,meteohub,2013-02-19 01:32:00,
2013-02-18 20:37:00,38.8,29.5,28.82,ESE,113,4.0,10.0,69,0.00,,,0.06,meteohub,2013-02-19 01:37:00,
2013-02-18 20:42:00,38.7,29.3,28.82,ESE,113,6.0,10.0,69,0.00,,,0.06,meteohub,2013-02-19 01:42:00,
2013-02-18 20:50:00,38.7,29.7,28.82,SSE,158,10.0,10.0,70,0.00,,,0.06,meteohub,2013-02-19 01:50:00,
2013-02-18 20:55:00,38.7,30.0,28.80,SE,135,5.0,10.0,71,0.00,,,0.06,meteohub,2013-02-19 01:55:00,
2013-02-18 21:00:00,38.5,29.8,28.80,ESE,113,5.0,10.0,71,0.00,,,0.06,meteohub,2013-02-19 02:00:00,
2013-02-18 21:06:00,38.3,30.0,28.80,ESE,113,6.0,10.0,72,0.00,,,0.06,meteohub,2013-02-19 02:06:00,
2013-02-18 21:11:00,38.1,29.8,28.78,SE,135,8.0,8.0,72,0.00,,,0.06,meteohub,2013-02-19 02:11:00,
2013-02-18 21:17:00,38.1,29.8,28.78,SE,135,3.0,10.0,72,0.00,,,0.06,meteohub,2013-02-19 02:17:00,
2013-02-18 21:22:00,37.9,30.0,28.78,ESE,113,5.0,10.0,73,0.00,,,0.06,meteohub,2013-02-19 02:22:00,
2013-02-18 21:27:00,37.9,30.0,28.78,ESE,113,7.0,8.0,73,0.00,,,0.06,meteohub,2013-02-19 02:27:00,
2013-02-18 21:32:00,37.6,30.4,28.78,NE,45,7.0,8.0,75,0.00,,,0.06,meteohub,2013-02-19 02:32:00,
2013-02-18 21:37:00,37.4,30.6,28.78,ESE,113,5.0,8.0,76,0.00,,,0.06,meteohub,2013-02-19 02:37:00,
2013-02-18 21:42:00,37.2,30.9,28.78,ESE,113,5.0,11.0,78,0.00,,,0.06,meteohub,2013-02-19 02:42:00,
2013-02-18 21:47:00,36.7,30.7,28.78,SE,135,6.0,11.0,79,0.00,,,0.06,meteohub,2013-02-19 02:47:00,
2013-02-18 21:52:00,36.5,30.9,28.78,ESE,113,5.0,11.0,80,0.00,,,0.06,meteohub,2013-02-19 02:52:00,
2013-02-18 21:57:00,36.3,30.7,28.78,East,90,6.0,9.0,80,0.00,,,0.06,meteohub,2013-02-19 02:57:00,
2013-02-18 22:02:00,35.8,30.6,28.78,NW,315,6.0,8.0,81,0.00,,,0.06,meteohub,2013-02-19 03:02:00,
2013-02-18 22:07:00,35.6,30.4,28.78,SE,135,6.0,7.0,81,0.00,,,0.06,meteohub,2013-02-19 03:07:00,
2013-02-18 22:12:00,35.4,30.6,28.77,ESE,113,6.0,8.0,82,0.00,,,0.06,meteohub,2013-02-19 03:12:00,
2013-02-18 22:17:00,35.1,30.2,28.77,ESE,113,6.0,9.0,82,0.00,,,0.06,meteohub,2013-02-19 03:17:00,
2013-02-18 22:22:00,35.1,30.2,28.77,NE,45,4.0,9.0,82,0.00,,,0.06,meteohub,2013-02-19 03:22:00,
2013-02-18 22:27:00,34.9,30.0,28.77,NE,45,5.0,9.0,82,0.00,,,0.06,meteohub,2013-02-19 03:27:00,
2013-02-18 22:32:00,34.7,29.8,28.75,East,90,9.0,9.0,82,0.00,,,0.06,meteohub,2013-02-19 03:32:00,
2013-02-18 22:37:00,34.7,29.8,28.75,SE,135,9.0,9.0,82,0.00,,,0.06,meteohub,2013-02-19 03:37:00,
2013-02-18 22:42:00,34.7,29.8,28.75,SSE,158,5.0,9.0,82,0.00,,,0.06,meteohub,2013-02-19 03:42:00,
2013-02-18 22:47:00,34.5,29.7,28.75,NE,45,4.0,10.0,82,0.00,,,0.06,meteohub,2013-02-19 03:47:00,
2013-02-18 22:54:00,34.3,29.5,28.74,SSE,158,4.0,10.0,82,0.00,,,0.06,meteohub,2013-02-19 03:54:00,
2013-02-18 22:59:00,34.3,29.5,28.74,ESE,113,7.0,8.0,82,0.03,,,0.08,meteohub,2013-02-19 03:59:00,
2013-02-18 23:04:00,34.3,29.5,28.74,North,0,7.0,8.0,82,0.03,,,0.08,meteohub,2013-02-19 04:04:00,
2013-02-18 23:09:00,34.3,29.1,28.73,SSE,158,3.0,8.0,81,0.03,,,0.08,meteohub,2013-02-19 04:09:00,
2013-02-18 23:15:00,34.3,29.1,28.73,East,90,4.0,9.0,81,0.03,,,0.08,meteohub,2013-02-19 04:15:00,
2013-02-18 23:20:00,34.5,29.3,28.73,ESE,113,5.0,9.0,81,0.03,,,0.08,meteohub,2013-02-19 04:20:00,
2013-02-18 23:25:00,34.7,29.5,28.73,East,90,5.0,6.0,81,0.03,,,0.08,meteohub,2013-02-19 04:25:00,
2013-02-18 23:32:00,34.9,29.7,28.71,NE,45,7.0,9.0,81,0.03,,,0.08,meteohub,2013-02-19 04:32:00,
2013-02-18 23:37:00,35.1,29.8,28.71,ESE,113,6.0,9.0,81,0.03,,,0.08,meteohub,2013-02-19 04:37:00,
2013-02-18 23:42:00,35.2,30.0,28.71,SSE,158,4.0,9.0,81,0.03,,,0.08,meteohub,2013-02-19 04:42:00,
2013-02-18 23:47:00,35.2,30.0,28.71,SE,135,4.0,8.0,81,0.03,,,0.08,meteohub,2013-02-19 04:47:00,
2013-02-18 23:52:00,35.4,29.8,28.69,ESE,113,4.0,7.0,80,0.00,,,0.08,meteohub,2013-02-19 04:52:00,